sensor_id;sensor_type;location;lat;lon;timestamp;pressure;altitude;pressure_sealevel;temperature;humidity
62634;BME280;48704;50.534;6.442;2023-08-21T00:01:16;96248.81;;;18.18;100.00
62634;BME280;48704;50.534;6.442;2023-08-21T00:03:42;96258.53;;;17.95;100.00
62634;BME280;48704;50.534;6.442;2023-08-21T00:06:07;96256.00;;;18.19;100.00
62634;BME280;48704;50.534;6.442;2023-08-21T00:08:32;96254.94;;;18.06;100.00
62634;BME280;48704;50.534;6.442;2023-08-21T00:10:58;96247.00;;;17.98;100.00
62634;BME280;48704;50.534;6.442;2023-08-21T00:13:23;96246.97;;;17.76;100.00
62634;BME280;48704;50.534;6.442;2023-08-21T00:15:48;96249.22;;;17.61;100.00
62634;BME280;48704;50.534;6.442;2023-08-21T00:18:13;96242.09;;;17.71;100.00
62634;BME280;48704;50.534;6.442;2023-08-21T00:20:39;96241.34;;;17.76;100.00
62634;BME280;48704;50.534;6.442;2023-08-21T00:23:06;96250.56;;;17.71;100.00
62634;BME280;48704;50.534;6.442;2023-08-21T00:25:33;96248.19;;;17.64;100.00
62634;BME280;48704;50.534;6.442;2023-08-21T00:27:58;96242.31;;;17.62;100.00
62634;BME280;48704;50.534;6.442;2023-08-21T00:30:23;96235.13;;;17.61;100.00
62634;BME280;48704;50.534;6.442;2023-08-21T00:32:49;96234.59;;;17.57;100.00
62634;BME280;48704;50.534;6.442;2023-08-21T00:35:14;96230.59;;;17.80;100.00
62634;BME280;48704;50.534;6.442;2023-08-21T00:37:39;96234.44;;;17.77;100.00
62634;BME280;48704;50.534;6.442;2023-08-21T00:40:05;96223.53;;;17.31;100.00
62634;BME280;48704;50.534;6.442;2023-08-21T00:42:30;96222.75;;;17.30;100.00
62634;BME280;48704;50.534;6.442;2023-08-21T00:44:56;96232.16;;;17.11;100.00
62634;BME280;48704;50.534;6.442;2023-08-21T00:47:21;96236.28;;;17.21;100.00
62634;BME280;48704;50.534;6.442;2023-08-21T00:49:46;96229.88;;;17.20;100.00
62634;BME280;48704;50.534;6.442;2023-08-21T00:52:12;96229.16;;;17.31;100.00
62634;BME280;48704;50.534;6.442;2023-08-21T00:54:39;96223.81;;;17.38;100.00
62634;BME280;48704;50.534;6.442;2023-08-21T00:57:05;96229.44;;;17.50;100.00
62634;BME280;48704;50.534;6.442;2023-08-21T00:59:30;96233.88;;;17.67;100.00
62634;BME280;48704;50.534;6.442;2023-08-21T01:01:56;96227.25;;;17.76;100.00
62634;BME280;48704;50.534;6.442;2023-08-21T01:04:21;96226.72;;;17.72;100.00
62634;BME280;48704;50.534;6.442;2023-08-21T01:06:48;96231.34;;;17.75;100.00
62634;BME280;48704;50.534;6.442;2023-08-21T01:17:21;96229.53;;;17.83;100.00
62634;BME280;48704;50.534;6.442;2023-08-21T01:19:49;96229.31;;;17.92;100.00
62634;BME280;48704;50.534;6.442;2023-08-21T01:22:15;96228.00;;;17.88;100.00
62634;BME280;48704;50.534;6.442;2023-08-21T01:24:41;96231.06;;;17.84;100.00
62634;BME280;48704;50.534;6.442;2023-08-21T01:27:06;96227.75;;;17.91;100.00
62634;BME280;48704;50.534;6.442;2023-08-21T01:29:32;96234.69;;;17.90;100.00
62634;BME280;48704;50.534;6.442;2023-08-21T01:34:33;96237.50;;;17.90;100.00
62634;BME280;48704;50.534;6.442;2023-08-21T01:37:00;96230.06;;;17.93;100.00
62634;BME280;48704;50.534;6.442;2023-08-21T01:39:26;96229.56;;;17.94;100.00
62634;BME280;48704;50.534;6.442;2023-08-21T01:41:52;96225.97;;;17.77;100.00
62634;BME280;48704;50.534;6.442;2023-08-21T01:44:18;96229.31;;;17.98;100.00
62634;BME280;48704;50.534;6.442;2023-08-21T01:46:43;96238.25;;;17.74;100.00
62634;BME280;48704;50.534;6.442;2023-08-21T01:49:08;96235.69;;;17.65;100.00
62634;BME280;48704;50.534;6.442;2023-08-21T01:51:33;96232.38;;;17.78;100.00
62634;BME280;48704;50.534;6.442;2023-08-21T01:53:59;96221.34;;;17.74;100.00
62634;BME280;48704;50.534;6.442;2023-08-21T01:56:24;96221.25;;;17.46;100.00
62634;BME280;48704;50.534;6.442;2023-08-21T01:58:49;96222.28;;;17.49;100.00
62634;BME280;48704;50.534;6.442;2023-08-21T02:01:15;96223.06;;;17.49;100.00
62634;BME280;48704;50.534;6.442;2023-08-21T02:03:40;96217.75;;;17.74;100.00
62634;BME280;48704;50.534;6.442;2023-08-21T02:06:06;96215.66;;;17.63;100.00
62634;BME280;48704;50.534;6.442;2023-08-21T02:08:32;96217.16;;;17.53;100.00
62634;BME280;48704;50.534;6.442;2023-08-21T02:10:57;96211.53;;;17.53;100.00
62634;BME280;48704;50.534;6.442;2023-08-21T02:13:23;96226.66;;;17.55;100.00
62634;BME280;48704;50.534;6.442;2023-08-21T02:15:48;96222.78;;;17.42;100.00
62634;BME280;48704;50.534;6.442;2023-08-21T02:18:17;96219.03;;;17.67;100.00
62634;BME280;48704;50.534;6.442;2023-08-21T02:20:42;96220.56;;;17.68;100.00
62634;BME280;48704;50.534;6.442;2023-08-21T02:23:08;96218.94;;;17.50;100.00
62634;BME280;48704;50.534;6.442;2023-08-21T02:25:33;96215.63;;;17.52;100.00
62634;BME280;48704;50.534;6.442;2023-08-21T02:27:58;96220.84;;;17.92;100.00
62634;BME280;48704;50.534;6.442;2023-08-21T02:30:24;96221.38;;;18.19;100.00
62634;BME280;48704;50.534;6.442;2023-08-21T02:32:52;96216.50;;;18.19;100.00
62634;BME280;48704;50.534;6.442;2023-08-21T02:35:18;96220.56;;;18.24;100.00
62634;BME280;48704;50.534;6.442;2023-08-21T02:37:43;96217.00;;;18.23;100.00
62634;BME280;48704;50.534;6.442;2023-08-21T02:40:09;96223.41;;;18.35;100.00
62634;BME280;48704;50.534;6.442;2023-08-21T02:42:35;96219.56;;;18.32;100.00
62634;BME280;48704;50.534;6.442;2023-08-21T02:45:01;96219.56;;;18.21;100.00
62634;BME280;48704;50.534;6.442;2023-08-21T02:47:29;96219.81;;;18.07;100.00
62634;BME280;48704;50.534;6.442;2023-08-21T02:49:54;96218.56;;;18.08;100.00
62634;BME280;48704;50.534;6.442;2023-08-21T02:52:20;96216.72;;;18.38;100.00
62634;BME280;48704;50.534;6.442;2023-08-21T02:54:45;96226.47;;;18.48;100.00
62634;BME280;48704;50.534;6.442;2023-08-21T02:57:10;96224.13;;;18.58;100.00
62634;BME280;48704;50.534;6.442;2023-08-21T02:59:35;96225.19;;;18.55;100.00
62634;BME280;48704;50.534;6.442;2023-08-21T03:02:01;96220.81;;;18.48;100.00
62634;BME280;48704;50.534;6.442;2023-08-21T03:04:26;96221.06;;;18.61;100.00
62634;BME280;48704;50.534;6.442;2023-08-21T03:06:51;96222.63;;;18.51;100.00
62634;BME280;48704;50.534;6.442;2023-08-21T03:09:17;96222.38;;;18.49;100.00
62634;BME280;48704;50.534;6.442;2023-08-21T03:11:42;96224.91;;;18.58;100.00
62634;BME280;48704;50.534;6.442;2023-08-21T03:14:07;96223.91;;;18.50;100.00
62634;BME280;48704;50.534;6.442;2023-08-21T03:16:33;96216.19;;;18.56;100.00
62634;BME280;48704;50.534;6.442;2023-08-21T03:18:59;96229.81;;;18.52;100.00
62634;BME280;48704;50.534;6.442;2023-08-21T03:21:25;96220.31;;;18.55;100.00
62634;BME280;48704;50.534;6.442;2023-08-21T03:23:54;96219.81;;;18.46;100.00
62634;BME280;48704;50.534;6.442;2023-08-21T03:26:19;96222.06;;;18.58;100.00
62634;BME280;48704;50.534;6.442;2023-08-21T03:28:45;96221.31;;;18.75;100.00
62634;BME280;48704;50.534;6.442;2023-08-21T03:31:10;96219.75;;;18.85;100.00
62634;BME280;48704;50.534;6.442;2023-08-21T03:33:35;96220.75;;;18.93;100.00
62634;BME280;48704;50.534;6.442;2023-08-21T03:36:00;96222.50;;;19.01;100.00
62634;BME280;48704;50.534;6.442;2023-08-21T03:38:26;96217.13;;;18.98;100.00
62634;BME280;48704;50.534;6.442;2023-08-21T03:40:51;96214.59;;;18.89;100.00
62634;BME280;48704;50.534;6.442;2023-08-21T03:43:16;96215.09;;;18.93;100.00
62634;BME280;48704;50.534;6.442;2023-08-21T03:45:42;96211.03;;;18.77;100.00
62634;BME280;48704;50.534;6.442;2023-08-21T03:48:07;96208.94;;;18.89;100.00
62634;BME280;48704;50.534;6.442;2023-08-21T03:50:32;96208.91;;;19.00;100.00
62634;BME280;48704;50.534;6.442;2023-08-21T03:52:57;96203.31;;;18.89;100.00
62634;BME280;48704;50.534;6.442;2023-08-21T03:55:23;96207.72;;;18.73;100.00
62634;BME280;48704;50.534;6.442;2023-08-21T03:57:48;96210.53;;;18.67;100.00
62634;BME280;48704;50.534;6.442;2023-08-21T04:00:14;96210.03;;;18.63;100.00
62634;BME280;48704;50.534;6.442;2023-08-21T04:02:40;96205.94;;;18.64;100.00
62634;BME280;48704;50.534;6.442;2023-08-21T04:05:06;96212.31;;;18.76;100.00
62634;BME280;48704;50.534;6.442;2023-08-21T04:07:31;96208.44;;;18.85;100.00
62634;BME280;48704;50.534;6.442;2023-08-21T04:09:56;96213.59;;;18.81;100.00
62634;BME280;48704;50.534;6.442;2023-08-21T04:12:21;96212.63;;;18.50;100.00
62634;BME280;48704;50.534;6.442;2023-08-21T04:14:47;96216.22;;;18.40;100.00
62634;BME280;48704;50.534;6.442;2023-08-21T04:17:12;96216.72;;;18.27;100.00
62634;BME280;48704;50.534;6.442;2023-08-21T04:19:37;96207.75;;;18.28;100.00
62634;BME280;48704;50.534;6.442;2023-08-21T04:22:05;96213.13;;;18.54;100.00
62634;BME280;48704;50.534;6.442;2023-08-21T04:24:31;96211.09;;;18.38;100.00
62634;BME280;48704;50.534;6.442;2023-08-21T04:26:56;96209.03;;;18.33;100.00
62634;BME280;48704;50.534;6.442;2023-08-21T04:29:21;96215.44;;;18.28;100.00
62634;BME280;48704;50.534;6.442;2023-08-21T04:31:48;96206.97;;;18.39;100.00
62634;BME280;48704;50.534;6.442;2023-08-21T04:34:13;96214.13;;;18.74;100.00
62634;BME280;48704;50.534;6.442;2023-08-21T04:36:38;96216.22;;;18.45;100.00
62634;BME280;48704;50.534;6.442;2023-08-21T04:39:04;96217.50;;;18.38;100.00
62634;BME280;48704;50.534;6.442;2023-08-21T04:41:29;96223.34;;;18.57;100.00
62634;BME280;48704;50.534;6.442;2023-08-21T04:43:54;96217.72;;;18.57;100.00
62634;BME280;48704;50.534;6.442;2023-08-21T04:46:19;96223.63;;;18.76;100.00
62634;BME280;48704;50.534;6.442;2023-08-21T04:48:46;96215.91;;;18.77;100.00
62634;BME280;48704;50.534;6.442;2023-08-21T04:51:12;96214.13;;;18.74;100.00
62634;BME280;48704;50.534;6.442;2023-08-21T04:53:37;96224.91;;;18.69;100.00
62634;BME280;48704;50.534;6.442;2023-08-21T04:56:02;96226.44;;;18.82;100.00
62634;BME280;48704;50.534;6.442;2023-08-21T04:58:28;96221.06;;;18.67;100.00
62634;BME280;48704;50.534;6.442;2023-08-21T05:00:54;96229.53;;;18.61;100.00
62634;BME280;48704;50.534;6.442;2023-08-21T05:03:19;96229.00;;;18.57;100.00
62634;BME280;48704;50.534;6.442;2023-08-21T05:05:55;96229.78;;;18.63;100.00
62634;BME280;48704;50.534;6.442;2023-08-21T05:08:24;96232.09;;;18.65;100.00
62634;BME280;48704;50.534;6.442;2023-08-21T05:10:56;96229.38;;;19.17;100.00
62634;BME280;48704;50.534;6.442;2023-08-21T05:13:22;96225.56;;;19.03;100.00
62634;BME280;48704;50.534;6.442;2023-08-21T05:15:55;96226.66;;;18.89;100.00
62634;BME280;48704;50.534;6.442;2023-08-21T05:18:22;96224.34;;;18.88;100.00
62634;BME280;48704;50.534;6.442;2023-08-21T05:20:48;96233.28;;;19.03;100.00
62634;BME280;48704;50.534;6.442;2023-08-21T05:23:14;96227.22;;;19.34;100.00
62634;BME280;48704;50.534;6.442;2023-08-21T05:25:39;96220.28;;;19.41;100.00
62634;BME280;48704;50.534;6.442;2023-08-21T05:28:06;96226.16;;;19.54;100.00
62634;BME280;48704;50.534;6.442;2023-08-21T05:30:31;96221.22;;;19.60;100.00
62634;BME280;48704;50.534;6.442;2023-08-21T05:32:57;96230.22;;;19.59;100.00
62634;BME280;48704;50.534;6.442;2023-08-21T05:35:22;96230.25;;;19.48;100.00
62634;BME280;48704;50.534;6.442;2023-08-21T05:37:47;96232.34;;;19.42;100.00
62634;BME280;48704;50.534;6.442;2023-08-21T05:40:13;96229.75;;;19.44;100.00
62634;BME280;48704;50.534;6.442;2023-08-21T05:42:38;96233.38;;;19.38;100.00
62634;BME280;48704;50.534;6.442;2023-08-21T05:45:05;96233.84;;;19.48;100.00
62634;BME280;48704;50.534;6.442;2023-08-21T05:47:30;96247.19;;;19.59;100.00
62634;BME280;48704;50.534;6.442;2023-08-21T05:49:56;96232.25;;;19.64;100.00
62634;BME280;48704;50.534;6.442;2023-08-21T05:52:21;96242.75;;;19.69;100.00
62634;BME280;48704;50.534;6.442;2023-08-21T05:54:50;96244.72;;;19.85;100.00
62634;BME280;48704;50.534;6.442;2023-08-21T05:57:15;96245.22;;;19.89;100.00
62634;BME280;48704;50.534;6.442;2023-08-21T05:59:47;96245.66;;;19.99;100.00
62634;BME280;48704;50.534;6.442;2023-08-21T06:02:13;96247.09;;;20.11;100.00
62634;BME280;48704;50.534;6.442;2023-08-21T06:04:42;96243.94;;;20.20;100.00
62634;BME280;48704;50.534;6.442;2023-08-21T06:07:08;96246.31;;;20.46;100.00
62634;BME280;48704;50.534;6.442;2023-08-21T06:09:34;96239.38;;;20.47;100.00
62634;BME280;48704;50.534;6.442;2023-08-21T06:12:00;96239.25;;;20.58;100.00
62634;BME280;48704;50.534;6.442;2023-08-21T06:14:28;96253.91;;;20.62;100.00
62634;BME280;48704;50.534;6.442;2023-08-21T06:17:04;96240.94;;;20.73;100.00
62634;BME280;48704;50.534;6.442;2023-08-21T06:19:30;96250.38;;;20.81;100.00
62634;BME280;48704;50.534;6.442;2023-08-21T06:21:55;96253.44;;;20.83;100.00
62634;BME280;48704;50.534;6.442;2023-08-21T06:24:22;96252.13;;;20.84;100.00
62634;BME280;48704;50.534;6.442;2023-08-21T06:26:47;96259.09;;;20.83;100.00
62634;BME280;48704;50.534;6.442;2023-08-21T06:29:12;96259.81;;;20.89;100.00
62634;BME280;48704;50.534;6.442;2023-08-21T06:31:38;96254.19;;;20.83;100.00
62634;BME280;48704;50.534;6.442;2023-08-21T06:34:03;96258.16;;;20.75;100.00
62634;BME280;48704;50.534;6.442;2023-08-21T06:36:28;96264.41;;;20.67;100.00
62634;BME280;48704;50.534;6.442;2023-08-21T06:38:55;96254.44;;;20.61;100.00
62634;BME280;48704;50.534;6.442;2023-08-21T06:41:20;96264.78;;;20.53;100.00
62634;BME280;48704;50.534;6.442;2023-08-21T06:43:45;96259.38;;;20.55;100.00
62634;BME280;48704;50.534;6.442;2023-08-21T06:46:11;96272.66;;;20.65;100.00
62634;BME280;48704;50.534;6.442;2023-08-21T06:48:38;96260.75;;;20.73;100.00
62634;BME280;48704;50.534;6.442;2023-08-21T06:51:05;96261.53;;;20.73;100.00
62634;BME280;48704;50.534;6.442;2023-08-21T06:53:30;96261.94;;;20.83;100.00
62634;BME280;48704;50.534;6.442;2023-08-21T06:55:56;96264.41;;;20.92;100.00
62634;BME280;48704;50.534;6.442;2023-08-21T06:58:21;96263.84;;;20.99;100.00
62634;BME280;48704;50.534;6.442;2023-08-21T07:00:46;96261.94;;;21.07;100.00
62634;BME280;48704;50.534;6.442;2023-08-21T07:03:12;96270.69;;;21.09;100.00
62634;BME280;48704;50.534;6.442;2023-08-21T07:05:37;96268.56;;;21.15;100.00
62634;BME280;48704;50.534;6.442;2023-08-21T07:08:02;96269.00;;;21.19;100.00
62634;BME280;48704;50.534;6.442;2023-08-21T07:10:28;96268.13;;;21.30;100.00
62634;BME280;48704;50.534;6.442;2023-08-21T07:12:54;96274.91;;;21.46;100.00
62634;BME280;48704;50.534;6.442;2023-08-21T07:15:19;96268.66;;;21.53;100.00
62634;BME280;48704;50.534;6.442;2023-08-21T07:17:45;96268.03;;;21.60;100.00
62634;BME280;48704;50.534;6.442;2023-08-21T07:20:11;96259.75;;;21.62;100.00
62634;BME280;48704;50.534;6.442;2023-08-21T07:22:37;96262.66;;;21.75;100.00
62634;BME280;48704;50.534;6.442;2023-08-21T07:25:03;96261.38;;;21.76;100.00
62634;BME280;48704;50.534;6.442;2023-08-21T07:27:32;96261.25;;;22.00;100.00
62634;BME280;48704;50.534;6.442;2023-08-21T07:29:58;96267.88;;;22.09;100.00
62634;BME280;48704;50.534;6.442;2023-08-21T07:32:24;96265.28;;;22.11;100.00
62634;BME280;48704;50.534;6.442;2023-08-21T07:34:53;96263.13;;;22.17;100.00
62634;BME280;48704;50.534;6.442;2023-08-21T07:37:19;96264.91;;;22.33;100.00
62634;BME280;48704;50.534;6.442;2023-08-21T07:39:45;96264.75;;;22.44;100.00
62634;BME280;48704;50.534;6.442;2023-08-21T07:42:11;96263.03;;;22.54;100.00
62634;BME280;48704;50.534;6.442;2023-08-21T07:44:39;96273.31;;;22.57;100.00
62634;BME280;48704;50.534;6.442;2023-08-21T07:47:04;96267.00;;;22.64;100.00
62634;BME280;48704;50.534;6.442;2023-08-21T07:49:30;96263.72;;;22.74;100.00
62634;BME280;48704;50.534;6.442;2023-08-21T07:51:56;96271.84;;;22.83;100.00
62634;BME280;48704;50.534;6.442;2023-08-21T07:54:21;96259.63;;;22.88;100.00
62634;BME280;48704;50.534;6.442;2023-08-21T07:56:46;96266.44;;;22.98;100.00
62634;BME280;48704;50.534;6.442;2023-08-21T07:59:12;96275.38;;;23.15;100.00
62634;BME280;48704;50.534;6.442;2023-08-21T08:01:38;96270.47;;;23.29;100.00
62634;BME280;48704;50.534;6.442;2023-08-21T08:04:03;96276.72;;;23.27;100.00
62634;BME280;48704;50.534;6.442;2023-08-21T08:06:29;96274.28;;;23.45;100.00
62634;BME280;48704;50.534;6.442;2023-08-21T08:08:54;96276.38;;;23.18;100.00
62634;BME280;48704;50.534;6.442;2023-08-21T08:11:19;96283.25;;;23.09;100.00
62634;BME280;48704;50.534;6.442;2023-08-21T08:13:45;96283.50;;;23.24;100.00
62634;BME280;48704;50.534;6.442;2023-08-21T08:16:10;96276.16;;;23.16;100.00
62634;BME280;48704;50.534;6.442;2023-08-21T08:18:35;96276.47;;;23.12;100.00
62634;BME280;48704;50.534;6.442;2023-08-21T08:21:00;96283.69;;;23.40;100.00
62634;BME280;48704;50.534;6.442;2023-08-21T08:23:26;96283.47;;;23.51;100.00
62634;BME280;48704;50.534;6.442;2023-08-21T08:25:51;96278.22;;;23.02;100.00
62634;BME280;48704;50.534;6.442;2023-08-21T08:28:16;96286.34;;;23.38;100.00
62634;BME280;48704;50.534;6.442;2023-08-21T08:30:42;96285.66;;;23.45;100.00
62634;BME280;48704;50.534;6.442;2023-08-21T08:33:07;96290.56;;;23.05;100.00
62634;BME280;48704;50.534;6.442;2023-08-21T08:35:32;96282.31;;;22.75;100.00
62634;BME280;48704;50.534;6.442;2023-08-21T08:37:57;96280.19;;;22.30;100.00
62634;BME280;48704;50.534;6.442;2023-08-21T08:40:23;96279.53;;;22.24;100.00
62634;BME280;48704;50.534;6.442;2023-08-21T08:42:48;96280.16;;;22.17;100.00
62634;BME280;48704;50.534;6.442;2023-08-21T08:45:13;96278.72;;;22.42;100.00
62634;BME280;48704;50.534;6.442;2023-08-21T08:47:40;96283.53;;;22.47;100.00
62634;BME280;48704;50.534;6.442;2023-08-21T08:50:07;96278.31;;;22.83;100.00
62634;BME280;48704;50.534;6.442;2023-08-21T08:52:38;96283.25;;;22.96;100.00
62634;BME280;48704;50.534;6.442;2023-08-21T08:55:04;96278.91;;;23.21;100.00
62634;BME280;48704;50.534;6.442;2023-08-21T08:57:30;96287.44;;;23.34;100.00
62634;BME280;48704;50.534;6.442;2023-08-21T08:59:55;96293.78;;;23.67;100.00
62634;BME280;48704;50.534;6.442;2023-08-21T09:02:21;96288.91;;;23.88;100.00
62634;BME280;48704;50.534;6.442;2023-08-21T09:04:46;96287.22;;;23.72;100.00
62634;BME280;48704;50.534;6.442;2023-08-21T09:07:12;96288.53;;;23.58;100.00
62634;BME280;48704;50.534;6.442;2023-08-21T09:09:41;96294.50;;;23.81;100.00
62634;BME280;48704;50.534;6.442;2023-08-21T09:12:11;96299.44;;;23.80;100.00
62634;BME280;48704;50.534;6.442;2023-08-21T09:14:43;96297.59;;;23.30;100.00
62634;BME280;48704;50.534;6.442;2023-08-21T09:17:08;96291.38;;;23.31;100.00
62634;BME280;48704;50.534;6.442;2023-08-21T09:19:34;96293.66;;;22.75;100.00
62634;BME280;48704;50.534;6.442;2023-08-21T09:22:13;96291.75;;;22.83;100.00
62634;BME280;48704;50.534;6.442;2023-08-21T09:24:40;96288.63;;;23.13;100.00
62634;BME280;48704;50.534;6.442;2023-08-21T09:27:13;96292.50;;;24.02;100.00
62634;BME280;48704;50.534;6.442;2023-08-21T09:29:39;96288.56;;;24.60;100.00
62634;BME280;48704;50.534;6.442;2023-08-21T09:32:08;96294.19;;;24.94;100.00
62634;BME280;48704;50.534;6.442;2023-08-21T09:34:34;96295.03;;;24.40;100.00
62634;BME280;48704;50.534;6.442;2023-08-21T09:37:04;96291.88;;;23.83;100.00
62634;BME280;48704;50.534;6.442;2023-08-21T09:39:33;96292.06;;;23.98;100.00
62634;BME280;48704;50.534;6.442;2023-08-21T09:41:59;96302.94;;;23.86;100.00
62634;BME280;48704;50.534;6.442;2023-08-21T09:44:25;96291.97;;;24.58;100.00
62634;BME280;48704;50.534;6.442;2023-08-21T09:46:50;96290.78;;;24.20;100.00
62634;BME280;48704;50.534;6.442;2023-08-21T09:49:17;96301.22;;;23.70;100.00
62634;BME280;48704;50.534;6.442;2023-08-21T09:51:42;96300.53;;;23.51;100.00
62634;BME280;48704;50.534;6.442;2023-08-21T09:54:10;96288.09;;;23.54;100.00
62634;BME280;48704;50.534;6.442;2023-08-21T09:56:36;96291.34;;;23.45;100.00
62634;BME280;48704;50.534;6.442;2023-08-21T09:59:02;96286.88;;;23.23;100.00
62634;BME280;48704;50.534;6.442;2023-08-21T10:01:28;96288.28;;;23.16;100.00
62634;BME280;48704;50.534;6.442;2023-08-21T10:03:58;96290.06;;;23.59;100.00
62634;BME280;48704;50.534;6.442;2023-08-21T10:06:28;96297.69;;;23.77;100.00
62634;BME280;48704;50.534;6.442;2023-08-21T10:08:54;96290.16;;;23.66;100.00
62634;BME280;48704;50.534;6.442;2023-08-21T10:11:20;96278.69;;;23.59;100.00
62634;BME280;48704;50.534;6.442;2023-08-21T10:13:46;96294.06;;;23.77;100.00
62634;BME280;48704;50.534;6.442;2023-08-21T10:16:12;96286.94;;;23.83;100.00
62634;BME280;48704;50.534;6.442;2023-08-21T10:18:43;96277.66;;;24.30;100.00
62634;BME280;48704;50.534;6.442;2023-08-21T10:21:15;96281.25;;;24.51;100.00
62634;BME280;48704;50.534;6.442;2023-08-21T10:23:42;96288.81;;;24.28;100.00
62634;BME280;48704;50.534;6.442;2023-08-21T10:26:10;96286.81;;;24.36;100.00
62634;BME280;48704;50.534;6.442;2023-08-21T10:28:55;96277.59;;;24.85;100.00
62634;BME280;48704;50.534;6.442;2023-08-21T10:31:40;96281.81;;;25.12;98.73
62634;BME280;48704;50.534;6.442;2023-08-21T10:34:10;96279.38;;;25.45;95.94
62634;BME280;48704;50.534;6.442;2023-08-21T10:39:15;96274.13;;;24.99;100.00
62634;BME280;48704;50.534;6.442;2023-08-21T10:42:11;96274.97;;;24.11;100.00
62634;BME280;48704;50.534;6.442;2023-08-21T10:49:40;96276.41;;;25.29;96.50
62634;BME280;48704;50.534;6.442;2023-08-21T10:52:07;96270.47;;;26.43;90.50
62634;BME280;48704;50.534;6.442;2023-08-21T10:54:45;96280.22;;;26.86;84.02
62634;BME280;48704;50.534;6.442;2023-08-21T10:57:10;96273.75;;;26.85;85.39
62634;BME280;48704;50.534;6.442;2023-08-21T10:59:35;96278.69;;;25.95;90.09
62634;BME280;48704;50.534;6.442;2023-08-21T11:02:01;96271.38;;;24.94;96.01
62634;BME280;48704;50.534;6.442;2023-08-21T11:04:26;96263.13;;;25.32;92.50
62634;BME280;48704;50.534;6.442;2023-08-21T11:06:52;96267.50;;;25.33;93.15
62634;BME280;48704;50.534;6.442;2023-08-21T11:09:17;96262.78;;;25.07;94.62
62634;BME280;48704;50.534;6.442;2023-08-21T11:11:44;96265.91;;;25.89;92.27
62634;BME280;48704;50.534;6.442;2023-08-21T11:14:09;96270.50;;;26.89;90.17
62634;BME280;48704;50.534;6.442;2023-08-21T11:16:35;96279.66;;;28.04;79.53
62634;BME280;48704;50.534;6.442;2023-08-21T11:19:03;96274.53;;;26.71;82.09
62634;BME280;48704;50.534;6.442;2023-08-21T11:21:30;96264.81;;;26.07;84.73
62634;BME280;48704;50.534;6.442;2023-08-21T11:23:55;96273.22;;;26.13;87.18
62634;BME280;48704;50.534;6.442;2023-08-21T11:26:21;96278.69;;;25.59;90.18
62634;BME280;48704;50.534;6.442;2023-08-21T11:28:47;96281.56;;;25.31;89.52
62634;BME280;48704;50.534;6.442;2023-08-21T11:31:13;96275.19;;;25.46;92.31
62634;BME280;48704;50.534;6.442;2023-08-21T11:33:38;96286.09;;;25.62;91.62
62634;BME280;48704;50.534;6.442;2023-08-21T11:36:04;96286.06;;;24.77;99.50
62634;BME280;48704;50.534;6.442;2023-08-21T11:38:29;96295.41;;;24.78;100.00
62634;BME280;48704;50.534;6.442;2023-08-21T11:43:21;96292.59;;;24.10;100.00
62634;BME280;48704;50.534;6.442;2023-08-21T11:45:46;96289.34;;;25.02;100.00
62634;BME280;48704;50.534;6.442;2023-08-21T11:48:12;96296.75;;;25.62;98.19
62634;BME280;48704;50.534;6.442;2023-08-21T11:50:37;96294.16;;;26.08;93.19
62634;BME280;48704;50.534;6.442;2023-08-21T11:53:03;96284.28;;;24.87;96.35
62634;BME280;48704;50.534;6.442;2023-08-21T11:55:29;96290.78;;;26.24;94.03
62634;BME280;48704;50.534;6.442;2023-08-21T11:57:54;96286.69;;;25.32;96.84
62634;BME280;48704;50.534;6.442;2023-08-21T12:00:27;96287.66;;;25.35;97.99
62634;BME280;48704;50.534;6.442;2023-08-21T12:02:56;96294.34;;;24.67;98.42
62634;BME280;48704;50.534;6.442;2023-08-21T12:05:22;96295.38;;;24.36;99.11
62634;BME280;48704;50.534;6.442;2023-08-21T12:07:47;96300.03;;;24.13;100.00
62634;BME280;48704;50.534;6.442;2023-08-21T12:10:12;96283.00;;;24.54;100.00
62634;BME280;48704;50.534;6.442;2023-08-21T12:12:38;96296.34;;;25.22;96.15
62634;BME280;48704;50.534;6.442;2023-08-21T12:15:03;96289.75;;;24.64;98.10
62634;BME280;48704;50.534;6.442;2023-08-21T12:17:28;96289.41;;;25.10;95.37
62634;BME280;48704;50.534;6.442;2023-08-21T12:19:54;96290.13;;;24.82;97.62
62634;BME280;48704;50.534;6.442;2023-08-21T12:22:19;96282.47;;;25.90;92.24
62634;BME280;48704;50.534;6.442;2023-08-21T12:24:45;96288.28;;;26.21;89.62
62634;BME280;48704;50.534;6.442;2023-08-21T12:27:10;96284.44;;;25.67;90.53
62634;BME280;48704;50.534;6.442;2023-08-21T12:29:35;96281.41;;;25.37;89.32
62634;BME280;48704;50.534;6.442;2023-08-21T12:32:01;96278.50;;;24.38;94.61
62634;BME280;48704;50.534;6.442;2023-08-21T12:34:27;96276.41;;;24.59;95.28
62634;BME280;48704;50.534;6.442;2023-08-21T12:36:53;96278.69;;;26.62;86.20
62634;BME280;48704;50.534;6.442;2023-08-21T12:39:18;96280.72;;;27.83;79.33
62634;BME280;48704;50.534;6.442;2023-08-21T12:41:43;96274.84;;;27.66;77.51
62634;BME280;48704;50.534;6.442;2023-08-21T12:44:09;96268.03;;;25.60;86.85
62634;BME280;48704;50.534;6.442;2023-08-21T12:46:35;96274.88;;;26.52;82.85
62634;BME280;48704;50.534;6.442;2023-08-21T12:49:01;96276.53;;;26.40;82.13
62634;BME280;48704;50.534;6.442;2023-08-21T12:51:27;96268.13;;;28.19;74.40
62634;BME280;48704;50.534;6.442;2023-08-21T12:53:54;96268.34;;;25.77;86.75
62634;BME280;48704;50.534;6.442;2023-08-21T12:56:19;96266.28;;;25.85;87.99
62634;BME280;48704;50.534;6.442;2023-08-21T12:58:46;96272.59;;;27.42;79.54
62634;BME280;48704;50.534;6.442;2023-08-21T13:01:11;96270.16;;;25.31;83.31
62634;BME280;48704;50.534;6.442;2023-08-21T13:03:37;96261.16;;;27.26;81.54
62634;BME280;48704;50.534;6.442;2023-08-21T13:06:02;96265.97;;;27.09;76.49
62634;BME280;48704;50.534;6.442;2023-08-21T13:08:28;96267.97;;;27.54;79.40